sensor_id;sensor_type;location;lat;lon;timestamp;P1;durP1;ratioP1;P2;durP2;ratioP2
74229;SDS011;62589;12.568;99.958;2023-04-24T00:01:38;24.20;;;18.08;;
74229;SDS011;62589;12.568;99.958;2023-04-24T00:04:05;23.95;;;18.80;;
74229;SDS011;62589;12.568;99.958;2023-04-24T00:06:37;22.50;;;17.73;;
74229;SDS011;62589;12.568;99.958;2023-04-24T00:09:03;21.15;;;17.67;;
74229;SDS011;62589;12.568;99.958;2023-04-24T00:11:30;22.33;;;19.02;;
74229;SDS011;62589;12.568;99.958;2023-04-24T00:13:56;21.92;;;17.67;;
74229;SDS011;62589;12.568;99.958;2023-04-24T00:16:23;23.52;;;19.30;;
74229;SDS011;62589;12.568;99.958;2023-04-24T00:18:49;21.25;;;18.40;;
74229;SDS011;62589;12.568;99.958;2023-04-24T00:21:17;21.30;;;17.48;;
74229;SDS011;62589;12.568;99.958;2023-04-24T00:23:44;24.25;;;19.50;;
74229;SDS011;62589;12.568;99.958;2023-04-24T00:26:10;23.60;;;18.33;;
74229;SDS011;62589;12.568;99.958;2023-04-24T00:28:37;23.08;;;18.27;;
74229;SDS011;62589;12.568;99.958;2023-04-24T00:31:03;21.15;;;17.85;;
74229;SDS011;62589;12.568;99.958;2023-04-24T00:33:29;20.40;;;17.05;;
74229;SDS011;62589;12.568;99.958;2023-04-24T00:35:56;21.58;;;17.70;;
74229;SDS011;62589;12.568;99.958;2023-04-24T00:38:22;20.90;;;17.20;;
74229;SDS011;62589;12.568;99.958;2023-04-24T00:40:49;21.05;;;17.55;;
74229;SDS011;62589;12.568;99.958;2023-04-24T00:43:16;22.00;;;17.27;;
74229;SDS011;62589;12.568;99.958;2023-04-24T00:45:42;22.13;;;17.13;;
74229;SDS011;62589;12.568;99.958;2023-04-24T00:48:09;22.90;;;16.92;;
74229;SDS011;62589;12.568;99.958;2023-04-24T00:50:36;24.38;;;17.02;;
74229;SDS011;62589;12.568;99.958;2023-04-24T00:53:03;23.05;;;17.10;;
74229;SDS011;62589;12.568;99.958;2023-04-24T00:55:30;21.33;;;16.75;;
74229;SDS011;62589;12.568;99.958;2023-04-24T00:57:57;22.45;;;17.20;;
74229;SDS011;62589;12.568;99.958;2023-04-24T01:00:24;18.83;;;16.02;;
74229;SDS011;62589;12.568;99.958;2023-04-24T01:02:50;21.70;;;16.55;;
74229;SDS011;62589;12.568;99.958;2023-04-24T01:05:18;21.70;;;17.58;;
74229;SDS011;62589;12.568;99.958;2023-04-24T01:07:45;20.73;;;16.48;;
74229;SDS011;62589;12.568;99.958;2023-04-24T01:10:14;21.15;;;17.40;;
74229;SDS011;62589;12.568;99.958;2023-04-24T01:12:42;22.65;;;16.95;;
74229;SDS011;62589;12.568;99.958;2023-04-24T01:15:09;20.85;;;17.48;;
74229;SDS011;62589;12.568;99.958;2023-04-24T01:17:36;20.13;;;17.02;;
74229;SDS011;62589;12.568;99.958;2023-04-24T01:20:03;19.73;;;16.98;;
74229;SDS011;62589;12.568;99.958;2023-04-24T01:22:32;21.73;;;17.35;;
74229;SDS011;62589;12.568;99.958;2023-04-24T01:25:00;24.38;;;17.30;;
74229;SDS011;62589;12.568;99.958;2023-04-24T01:27:27;20.77;;;16.55;;
74229;SDS011;62589;12.568;99.958;2023-04-24T01:29:53;18.75;;;15.65;;
74229;SDS011;62589;12.568;99.958;2023-04-24T01:32:20;22.73;;;15.98;;
74229;SDS011;62589;12.568;99.958;2023-04-24T01:34:46;18.20;;;15.85;;
74229;SDS011;62589;12.568;99.958;2023-04-24T01:37:13;19.38;;;15.48;;
74229;SDS011;62589;12.568;99.958;2023-04-24T01:39:41;19.83;;;15.02;;
74229;SDS011;62589;12.568;99.958;2023-04-24T01:42:07;19.83;;;15.98;;
74229;SDS011;62589;12.568;99.958;2023-04-24T01:44:33;18.02;;;15.38;;
74229;SDS011;62589;12.568;99.958;2023-04-24T01:47:01;17.90;;;13.35;;
74229;SDS011;62589;12.568;99.958;2023-04-24T01:49:27;15.27;;;13.60;;
74229;SDS011;62589;12.568;99.958;2023-04-24T01:51:53;16.65;;;13.45;;
74229;SDS011;62589;12.568;99.958;2023-04-24T01:54:20;16.27;;;13.25;;
74229;SDS011;62589;12.568;99.958;2023-04-24T01:56:46;16.83;;;13.68;;
74229;SDS011;62589;12.568;99.958;2023-04-24T01:59:13;15.05;;;13.18;;
74229;SDS011;62589;12.568;99.958;2023-04-24T02:01:41;15.15;;;12.38;;
74229;SDS011;62589;12.568;99.958;2023-04-24T02:04:07;15.13;;;12.15;;
74229;SDS011;62589;12.568;99.958;2023-04-24T02:06:34;14.50;;;12.55;;
74229;SDS011;62589;12.568;99.958;2023-04-24T02:09:01;15.45;;;12.45;;
74229;SDS011;62589;12.568;99.958;2023-04-24T02:11:28;14.68;;;12.07;;
74229;SDS011;62589;12.568;99.958;2023-04-24T02:13:56;13.73;;;11.65;;
74229;SDS011;62589;12.568;99.958;2023-04-24T02:16:22;13.48;;;11.43;;
74229;SDS011;62589;12.568;99.958;2023-04-24T02:18:48;11.93;;;10.68;;
74229;SDS011;62589;12.568;99.958;2023-04-24T02:21:15;14.13;;;12.63;;
74229;SDS011;62589;12.568;99.958;2023-04-24T02:23:41;15.38;;;11.40;;
74229;SDS011;62589;12.568;99.958;2023-04-24T02:26:08;14.68;;;12.15;;
74229;SDS011;62589;12.568;99.958;2023-04-24T02:28:34;12.68;;;11.25;;
74229;SDS011;62589;12.568;99.958;2023-04-24T02:31:01;14.00;;;11.32;;
74229;SDS011;62589;12.568;99.958;2023-04-24T02:33:27;18.77;;;13.57;;
74229;SDS011;62589;12.568;99.958;2023-04-24T02:35:54;14.70;;;12.48;;
74229;SDS011;62589;12.568;99.958;2023-04-24T02:38:20;17.25;;;14.00;;
74229;SDS011;62589;12.568;99.958;2023-04-24T02:40:47;19.08;;;13.60;;
74229;SDS011;62589;12.568;99.958;2023-04-24T02:43:13;15.30;;;13.18;;
74229;SDS011;62589;12.568;99.958;2023-04-24T02:45:40;16.02;;;12.70;;
74229;SDS011;62589;12.568;99.958;2023-04-24T02:48:06;14.95;;;12.80;;
74229;SDS011;62589;12.568;99.958;2023-04-24T02:50:32;16.42;;;13.88;;
74229;SDS011;62589;12.568;99.958;2023-04-24T02:52:59;16.55;;;14.30;;
74229;SDS011;62589;12.568;99.958;2023-04-24T02:55:25;13.77;;;12.07;;
74229;SDS011;62589;12.568;99.958;2023-04-24T02:57:52;14.80;;;12.75;;
74229;SDS011;62589;12.568;99.958;2023-04-24T03:00:18;15.18;;;12.75;;
74229;SDS011;62589;12.568;99.958;2023-04-24T03:02:45;20.27;;;13.65;;
74229;SDS011;62589;12.568;99.958;2023-04-24T03:05:11;16.58;;;13.40;;
74229;SDS011;62589;12.568;99.958;2023-04-24T03:07:37;15.32;;;13.52;;
74229;SDS011;62589;12.568;99.958;2023-04-24T03:10:04;16.88;;;13.57;;
74229;SDS011;62589;12.568;99.958;2023-04-24T03:12:32;14.23;;;12.73;;
74229;SDS011;62589;12.568;99.958;2023-04-24T03:14:58;14.27;;;12.52;;
74229;SDS011;62589;12.568;99.958;2023-04-24T03:17:28;15.93;;;12.38;;
74229;SDS011;62589;12.568;99.958;2023-04-24T03:19:55;15.48;;;13.30;;
74229;SDS011;62589;12.568;99.958;2023-04-24T03:22:21;17.83;;;13.48;;
74229;SDS011;62589;12.568;99.958;2023-04-24T03:24:47;17.27;;;13.80;;
74229;SDS011;62589;12.568;99.958;2023-04-24T03:27:14;14.30;;;11.60;;
74229;SDS011;62589;12.568;99.958;2023-04-24T03:29:40;14.90;;;12.40;;
74229;SDS011;62589;12.568;99.958;2023-04-24T03:32:07;14.65;;;12.07;;
74229;SDS011;62589;12.568;99.958;2023-04-24T03:34:33;15.40;;;11.70;;
74229;SDS011;62589;12.568;99.958;2023-04-24T03:37:00;13.57;;;11.85;;
74229;SDS011;62589;12.568;99.958;2023-04-24T03:39:26;14.93;;;12.43;;
74229;SDS011;62589;12.568;99.958;2023-04-24T03:41:53;16.05;;;11.68;;
74229;SDS011;62589;12.568;99.958;2023-04-24T03:44:19;14.13;;;11.93;;
74229;SDS011;62589;12.568;99.958;2023-04-24T03:46:45;13.80;;;11.68;;
74229;SDS011;62589;12.568;99.958;2023-04-24T03:49:12;12.90;;;11.57;;
74229;SDS011;62589;12.568;99.958;2023-04-24T03:51:38;12.23;;;10.93;;
74229;SDS011;62589;12.568;99.958;2023-04-24T03:54:04;12.52;;;11.23;;
74229;SDS011;62589;12.568;99.958;2023-04-24T03:56:31;14.18;;;12.25;;
74229;SDS011;62589;12.568;99.958;2023-04-24T03:58:57;12.90;;;10.73;;
74229;SDS011;62589;12.568;99.958;2023-04-24T04:01:24;12.38;;;11.07;;
74229;SDS011;62589;12.568;99.958;2023-04-24T04:03:50;12.40;;;10.88;;
74229;SDS011;62589;12.568;99.958;2023-04-24T04:06:16;12.02;;;10.82;;
74229;SDS011;62589;12.568;99.958;2023-04-24T04:08:44;13.05;;;10.43;;
74229;SDS011;62589;12.568;99.958;2023-04-24T04:24:46;13.27;;;10.52;;
74229;SDS011;62589;12.568;99.958;2023-04-24T04:27:13;12.73;;;10.77;;
74229;SDS011;62589;12.568;99.958;2023-04-24T04:29:41;11.45;;;10.20;;
74229;SDS011;62589;12.568;99.958;2023-04-24T04:32:09;10.32;;;9.23;;
74229;SDS011;62589;12.568;99.958;2023-04-24T04:47:50;13.20;;;10.05;;
74229;SDS011;62589;12.568;99.958;2023-04-24T04:50:17;10.43;;;9.05;;
74229;SDS011;62589;12.568;99.958;2023-04-24T04:52:44;10.45;;;9.35;;
74229;SDS011;62589;12.568;99.958;2023-04-24T04:55:11;11.50;;;10.30;;
74229;SDS011;62589;12.568;99.958;2023-04-24T04:57:39;11.63;;;9.70;;
74229;SDS011;62589;12.568;99.958;2023-04-24T05:00:05;11.02;;;9.88;;
74229;SDS011;62589;12.568;99.958;2023-04-24T05:02:33;9.82;;;8.77;;
74229;SDS011;62589;12.568;99.958;2023-04-24T05:04:59;13.00;;;10.55;;
74229;SDS011;62589;12.568;99.958;2023-04-24T05:07:25;10.88;;;9.32;;
74229;SDS011;62589;12.568;99.958;2023-04-24T05:09:52;10.82;;;9.25;;
74229;SDS011;62589;12.568;99.958;2023-04-24T05:12:18;10.80;;;9.68;;
74229;SDS011;62589;12.568;99.958;2023-04-24T05:14:44;9.77;;;8.60;;
74229;SDS011;62589;12.568;99.958;2023-04-24T05:17:11;11.27;;;10.15;;
74229;SDS011;62589;12.568;99.958;2023-04-24T05:19:37;10.77;;;9.13;;
74229;SDS011;62589;12.568;99.958;2023-04-24T05:22:04;11.48;;;10.25;;
74229;SDS011;62589;12.568;99.958;2023-04-24T05:24:35;11.57;;;10.30;;
74229;SDS011;62589;12.568;99.958;2023-04-24T05:27:02;10.90;;;9.63;;
74229;SDS011;62589;12.568;99.958;2023-04-24T05:29:30;12.30;;;9.48;;
74229;SDS011;62589;12.568;99.958;2023-04-24T05:32:00;9.93;;;8.90;;
74229;SDS011;62589;12.568;99.958;2023-04-24T05:34:26;9.73;;;8.73;;
74229;SDS011;62589;12.568;99.958;2023-04-24T05:36:53;11.45;;;9.35;;
74229;SDS011;62589;12.568;99.958;2023-04-24T05:39:19;11.20;;;8.18;;
74229;SDS011;62589;12.568;99.958;2023-04-24T05:41:46;12.48;;;9.00;;
74229;SDS011;62589;12.568;99.958;2023-04-24T05:44:12;11.10;;;8.07;;
74229;SDS011;62589;12.568;99.958;2023-04-24T05:46:39;10.57;;;9.48;;
74229;SDS011;62589;12.568;99.958;2023-04-24T05:49:05;11.25;;;9.13;;
74229;SDS011;62589;12.568;99.958;2023-04-24T05:51:32;10.85;;;9.15;;
74229;SDS011;62589;12.568;99.958;2023-04-24T05:53:58;11.77;;;8.88;;
74229;SDS011;62589;12.568;99.958;2023-04-24T05:56:24;12.75;;;9.18;;
74229;SDS011;62589;12.568;99.958;2023-04-24T05:58:51;10.70;;;8.65;;
74229;SDS011;62589;12.568;99.958;2023-04-24T06:01:17;9.27;;;8.07;;
74229;SDS011;62589;12.568;99.958;2023-04-24T06:03:44;9.90;;;8.85;;
74229;SDS011;62589;12.568;99.958;2023-04-24T06:06:11;13.05;;;9.95;;
74229;SDS011;62589;12.568;99.958;2023-04-24T06:08:37;11.73;;;9.75;;
74229;SDS011;62589;12.568;99.958;2023-04-24T06:11:04;11.13;;;9.07;;
74229;SDS011;62589;12.568;99.958;2023-04-24T06:13:30;10.20;;;8.30;;
74229;SDS011;62589;12.568;99.958;2023-04-24T06:15:57;9.57;;;8.35;;
74229;SDS011;62589;12.568;99.958;2023-04-24T06:18:23;10.02;;;8.10;;
74229;SDS011;62589;12.568;99.958;2023-04-24T06:20:49;11.07;;;8.65;;
74229;SDS011;62589;12.568;99.958;2023-04-24T06:23:17;12.02;;;9.00;;
74229;SDS011;62589;12.568;99.958;2023-04-24T06:25:43;12.15;;;9.43;;
74229;SDS011;62589;12.568;99.958;2023-04-24T06:28:09;11.82;;;8.63;;
74229;SDS011;62589;12.568;99.958;2023-04-24T06:30:36;10.18;;;8.80;;
74229;SDS011;62589;12.568;99.958;2023-04-24T06:33:02;11.75;;;9.60;;
74229;SDS011;62589;12.568;99.958;2023-04-24T06:35:29;10.18;;;8.93;;
74229;SDS011;62589;12.568;99.958;2023-04-24T06:37:55;12.90;;;10.38;;
74229;SDS011;62589;12.568;99.958;2023-04-24T06:40:22;9.93;;;8.93;;
74229;SDS011;62589;12.568;99.958;2023-04-24T06:42:48;11.00;;;8.52;;
74229;SDS011;62589;12.568;99.958;2023-04-24T06:45:15;12.75;;;9.85;;
74229;SDS011;62589;12.568;99.958;2023-04-24T06:47:41;13.57;;;10.55;;
74229;SDS011;62589;12.568;99.958;2023-04-24T06:50:08;10.35;;;8.60;;
74229;SDS011;62589;12.568;99.958;2023-04-24T06:52:34;13.90;;;9.75;;
74229;SDS011;62589;12.568;99.958;2023-04-24T06:55:04;9.70;;;7.88;;
74229;SDS011;62589;12.568;99.958;2023-04-24T06:57:31;12.25;;;9.10;;
74229;SDS011;62589;12.568;99.958;2023-04-24T06:59:58;10.52;;;8.82;;
74229;SDS011;62589;12.568;99.958;2023-04-24T07:02:24;9.00;;;8.10;;
74229;SDS011;62589;12.568;99.958;2023-04-24T07:04:51;14.27;;;8.80;;
74229;SDS011;62589;12.568;99.958;2023-04-24T07:07:18;10.50;;;9.27;;
74229;SDS011;62589;12.568;99.958;2023-04-24T07:09:44;10.45;;;9.35;;
74229;SDS011;62589;12.568;99.958;2023-04-24T07:12:11;11.13;;;9.75;;
74229;SDS011;62589;12.568;99.958;2023-04-24T07:14:39;10.90;;;8.93;;
74229;SDS011;62589;12.568;99.958;2023-04-24T07:17:06;12.73;;;9.52;;
74229;SDS011;62589;12.568;99.958;2023-04-24T07:19:35;11.23;;;8.07;;
74229;SDS011;62589;12.568;99.958;2023-04-24T07:22:01;10.85;;;9.38;;
74229;SDS011;62589;12.568;99.958;2023-04-24T07:24:29;9.13;;;8.05;;
74229;SDS011;62589;12.568;99.958;2023-04-24T07:26:57;13.55;;;9.32;;
74229;SDS011;62589;12.568;99.958;2023-04-24T07:29:26;10.68;;;8.75;;
74229;SDS011;62589;12.568;99.958;2023-04-24T07:31:52;13.75;;;9.63;;
74229;SDS011;62589;12.568;99.958;2023-04-24T07:34:19;10.40;;;9.25;;
74229;SDS011;62589;12.568;99.958;2023-04-24T07:36:46;12.50;;;10.18;;
74229;SDS011;62589;12.568;99.958;2023-04-24T07:39:12;10.75;;;9.65;;
74229;SDS011;62589;12.568;99.958;2023-04-24T07:41:39;9.05;;;8.18;;
74229;SDS011;62589;12.568;99.958;2023-04-24T07:44:05;10.27;;;9.00;;
74229;SDS011;62589;12.568;99.958;2023-04-24T07:46:32;9.25;;;8.32;;
74229;SDS011;62589;12.568;99.958;2023-04-24T07:48:58;9.43;;;8.35;;
74229;SDS011;62589;12.568;99.958;2023-04-24T07:51:26;10.63;;;9.07;;
74229;SDS011;62589;12.568;99.958;2023-04-24T07:53:53;10.05;;;8.95;;
74229;SDS011;62589;12.568;99.958;2023-04-24T07:56:22;10.63;;;8.65;;
74229;SDS011;62589;12.568;99.958;2023-04-24T07:58:49;11.85;;;9.13;;
74229;SDS011;62589;12.568;99.958;2023-04-24T08:01:15;13.32;;;9.98;;
74229;SDS011;62589;12.568;99.958;2023-04-24T08:03:42;9.48;;;8.48;;
74229;SDS011;62589;12.568;99.958;2023-04-24T08:06:08;11.45;;;9.30;;
74229;SDS011;62589;12.568;99.958;2023-04-24T08:08:35;13.73;;;10.00;;
74229;SDS011;62589;12.568;99.958;2023-04-24T08:11:01;11.38;;;9.07;;
74229;SDS011;62589;12.568;99.958;2023-04-24T08:13:28;11.82;;;8.75;;
74229;SDS011;62589;12.568;99.958;2023-04-24T08:15:55;12.27;;;10.45;;
74229;SDS011;62589;12.568;99.958;2023-04-24T08:18:22;11.68;;;10.20;;
74229;SDS011;62589;12.568;99.958;2023-04-24T08:20:49;12.00;;;9.35;;
74229;SDS011;62589;12.568;99.958;2023-04-24T08:23:15;11.60;;;9.55;;
74229;SDS011;62589;12.568;99.958;2023-04-24T08:25:41;11.98;;;10.02;;
74229;SDS011;62589;12.568;99.958;2023-04-24T08:28:08;10.05;;;8.98;;
74229;SDS011;62589;12.568;99.958;2023-04-24T08:30:36;13.38;;;8.27;;
74229;SDS011;62589;12.568;99.958;2023-04-24T08:33:03;9.85;;;8.63;;
74229;SDS011;62589;12.568;99.958;2023-04-24T08:35:30;9.95;;;8.95;;
74229;SDS011;62589;12.568;99.958;2023-04-24T08:37:56;12.25;;;8.43;;
74229;SDS011;62589;12.568;99.958;2023-04-24T08:40:26;11.82;;;9.30;;
74229;SDS011;62589;12.568;99.958;2023-04-24T08:42:55;12.77;;;9.80;;
74229;SDS011;62589;12.568;99.958;2023-04-24T08:45:22;13.32;;;9.50;;
74229;SDS011;62589;12.568;99.958;2023-04-24T08:47:49;11.18;;;8.73;;
74229;SDS011;62589;12.568;99.958;2023-04-24T08:50:18;10.27;;;8.90;;
74229;SDS011;62589;12.568;99.958;2023-04-24T08:52:45;9.90;;;8.85;;
74229;SDS011;62589;12.568;99.958;2023-04-24T08:55:12;10.88;;;8.98;;
74229;SDS011;62589;12.568;99.958;2023-04-24T08:57:40;9.63;;;8.68;;
74229;SDS011;62589;12.568;99.958;2023-04-24T09:00:07;12.88;;;9.50;;
74229;SDS011;62589;12.568;99.958;2023-04-24T09:02:33;10.50;;;9.15;;
74229;SDS011;62589;12.568;99.958;2023-04-24T09:05:00;10.63;;;9.48;;
74229;SDS011;62589;12.568;99.958;2023-04-24T09:07:29;10.70;;;9.38;;
74229;SDS011;62589;12.568;99.958;2023-04-24T09:09:59;10.85;;;9.60;;
74229;SDS011;62589;12.568;99.958;2023-04-24T09:12:26;12.80;;;9.80;;
74229;SDS011;62589;12.568;99.958;2023-04-24T09:14:53;10.90;;;9.63;;
74229;SDS011;62589;12.568;99.958;2023-04-24T09:17:20;12.15;;;9.85;;
74229;SDS011;62589;12.568;99.958;2023-04-24T09:19:48;11.93;;;9.75;;
74229;SDS011;62589;12.568;99.958;2023-04-24T09:22:15;12.82;;;9.98;;
74229;SDS011;62589;12.568;99.958;2023-04-24T09:24:42;13.82;;;9.68;;
74229;SDS011;62589;12.568;99.958;2023-04-24T09:27:08;11.85;;;9.60;;
74229;SDS011;62589;12.568;99.958;2023-04-24T09:29:38;14.30;;;11.40;;
74229;SDS011;62589;12.568;99.958;2023-04-24T09:37:36;15.05;;;10.77;;
74229;SDS011;62589;12.568;99.958;2023-04-24T09:40:11;14.45;;;10.82;;
74229;SDS011;62589;12.568;99.958;2023-04-24T09:42:50;14.25;;;10.75;;
74229;SDS011;62589;12.568;99.958;2023-04-24T09:45:18;14.35;;;10.70;;
74229;SDS011;62589;12.568;99.958;2023-04-24T09:47:45;15.02;;;10.07;;
74229;SDS011;62589;12.568;99.958;2023-04-24T09:50:13;11.93;;;9.75;;
74229;SDS011;62589;12.568;99.958;2023-04-24T09:52:41;10.52;;;9.45;;
74229;SDS011;62589;12.568;99.958;2023-04-24T09:55:19;11.43;;;9.27;;
74229;SDS011;62589;12.568;99.958;2023-04-24T09:57:49;10.73;;;8.95;;
74229;SDS011;62589;12.568;99.958;2023-04-24T10:00:18;11.07;;;9.40;;
74229;SDS011;62589;12.568;99.958;2023-04-24T10:02:54;10.13;;;9.00;;
74229;SDS011;62589;12.568;99.958;2023-04-24T10:05:29;10.90;;;8.80;;
74229;SDS011;62589;12.568;99.958;2023-04-24T10:08:06;11.82;;;8.60;;
74229;SDS011;62589;12.568;99.958;2023-04-24T10:10:36;10.63;;;9.52;;
74229;SDS011;62589;12.568;99.958;2023-04-24T10:13:13;12.40;;;9.27;;
74229;SDS011;62589;12.568;99.958;2023-04-24T10:15:43;10.73;;;9.55;;
74229;SDS011;62589;12.568;99.958;2023-04-24T10:18:11;12.23;;;9.63;;
74229;SDS011;62589;12.568;99.958;2023-04-24T10:20:38;10.95;;;9.50;;
74229;SDS011;62589;12.568;99.958;2023-04-24T10:23:05;10.65;;;9.55;;
74229;SDS011;62589;12.568;99.958;2023-04-24T10:25:33;15.07;;;11.95;;
74229;SDS011;62589;12.568;99.958;2023-04-24T10:28:01;16.73;;;11.88;;
74229;SDS011;62589;12.568;99.958;2023-04-24T10:30:29;15.07;;;11.80;;
74229;SDS011;62589;12.568;99.958;2023-04-24T10:33:02;17.75;;;11.93;;
74229;SDS011;62589;12.568;99.958;2023-04-24T10:35:34;19.10;;;12.18;;
74229;SDS011;62589;12.568;99.958;2023-04-24T10:38:11;14.93;;;10.90;;
74229;SDS011;62589;12.568;99.958;2023-04-24T10:40:39;24.23;;;16.95;;
74229;SDS011;62589;12.568;99.958;2023-04-24T10:43:07;34.42;;;17.50;;
74229;SDS011;62589;12.568;99.958;2023-04-24T10:45:37;30.55;;;17.42;;
74229;SDS011;62589;12.568;99.958;2023-04-24T10:48:04;14.80;;;12.27;;
74229;SDS011;62589;12.568;99.958;2023-04-24T10:50:43;13.23;;;10.95;;
74229;SDS011;62589;12.568;99.958;2023-04-24T10:53:17;16.65;;;11.57;;
74229;SDS011;62589;12.568;99.958;2023-04-24T10:58:36;11.45;;;9.73;;
74229;SDS011;62589;12.568;99.958;2023-04-24T11:03:58;14.10;;;10.73;;
74229;SDS011;62589;12.568;99.958;2023-04-24T11:06:30;11.15;;;9.68;;
74229;SDS011;62589;12.568;99.958;2023-04-24T11:21:59;11.33;;;9.40;;
74229;SDS011;62589;12.568;99.958;2023-04-24T11:24:49;11.48;;;9.77;;
74229;SDS011;62589;12.568;99.958;2023-04-24T11:27:19;10.98;;;9.63;;
74229;SDS011;62589;12.568;99.958;2023-04-24T11:29:48;11.65;;;9.80;;
74229;SDS011;62589;12.568;99.958;2023-04-24T11:32:37;12.70;;;10.43;;
74229;SDS011;62589;12.568;99.958;2023-04-24T11:35:06;12.20;;;10.18;;
74229;SDS011;62589;12.568;99.958;2023-04-24T11:37:39;12.25;;;10.30;;
74229;SDS011;62589;12.568;99.958;2023-04-24T11:40:07;13.00;;;10.55;;
74229;SDS011;62589;12.568;99.958;2023-04-24T11:42:36;11.38;;;9.75;;
74229;SDS011;62589;12.568;99.958;2023-04-24T11:45:08;11.30;;;10.10;;
74229;SDS011;62589;12.568;99.958;2023-04-24T11:47:43;14.05;;;9.82;;
74229;SDS011;62589;12.568;99.958;2023-04-24T11:50:13;12.30;;;10.07;;
74229;SDS011;62589;12.568;99.958;2023-04-24T11:52:45;11.90;;;9.80;;
74229;SDS011;62589;12.568;99.958;2023-04-24T11:57:58;12.32;;;10.23;;
74229;SDS011;62589;12.568;99.958;2023-04-24T12:00:29;13.88;;;10.23;;
74229;SDS011;62589;12.568;99.958;2023-04-24T12:03:06;14.93;;;10.45;;
74229;SDS011;62589;12.568;99.958;2023-04-24T12:05:34;13.77;;;10.43;;
74229;SDS011;62589;12.568;99.958;2023-04-24T12:08:01;14.02;;;10.10;;
74229;SDS011;62589;12.568;99.958;2023-04-24T12:10:29;11.38;;;9.63;;
74229;SDS011;62589;12.568;99.958;2023-04-24T12:12:57;13.15;;;10.00;;
74229;SDS011;62589;12.568;99.958;2023-04-24T12:15:25;10.98;;;9.05;;
74229;SDS011;62589;12.568;99.958;2023-04-24T12:17:52;11.85;;;9.20;;
74229;SDS011;62589;12.568;99.958;2023-04-24T12:20:32;12.27;;;9.50;;
74229;SDS011;62589;12.568;99.958;2023-04-24T12:22:59;10.80;;;9.52;;
74229;SDS011;62589;12.568;99.958;2023-04-24T12:25:27;14.07;;;9.73;;
74229;SDS011;62589;12.568;99.958;2023-04-24T12:30:48;13.00;;;9.55;;
74229;SDS011;62589;12.568;99.958;2023-04-24T12:35:45;11.15;;;10.00;;
74229;SDS011;62589;12.568;99.958;2023-04-24T12:38:12;11.55;;;9.65;;
74229;SDS011;62589;12.568;99.958;2023-04-24T12:40:39;13.30;;;10.02;;
74229;SDS011;62589;12.568;99.958;2023-04-24T12:43:13;12.25;;;9.82;;
74229;SDS011;62589;12.568;99.958;2023-04-24T12:45:41;13.50;;;10.60;;
74229;SDS011;62589;12.568;99.958;2023-04-24T12:48:07;11.32;;;10.15;;
74229;SDS011;62589;12.568;99.958;2023-04-24T12:50:34;12.60;;;9.52;;
74229;SDS011;62589;12.568;99.958;2023-04-24T12:53:00;11.18;;;9.57;;
74229;SDS011;62589;12.568;99.958;2023-04-24T12:55:26;11.07;;;9.82;;
74229;SDS011;62589;12.568;99.958;2023-04-24T12:57:53;11.93;;;9.80;;
74229;SDS011;62589;12.568;99.958;2023-04-24T13:00:20;11.30;;;9.70;;
74229;SDS011;62589;12.568;99.958;2023-04-24T13:02:47;10.77;;;9.65;;
74229;SDS011;62589;12.568;99.958;2023-04-24T13:05:13;12.02;;;10.15;;
74229;SDS011;62589;12.568;99.958;2023-04-24T13:07:40;14.18;;;10.18;;
74229;SDS011;62589;12.568;99.958;2023-04-24T13:10:07;12.90;;;10.32;;
74229;SDS011;62589;12.568;99.958;2023-04-24T13:12:34;13.05;;;10.80;;
74229;SDS011;62589;12.568;99.958;2023-04-24T13:15:00;11.73;;;10.50;;
74229;SDS011;62589;12.568;99.958;2023-04-24T13:17:27;14.20;;;10.70;;
74229;SDS011;62589;12.568;99.958;2023-04-24T13:19:53;13.23;;;10.90;;
74229;SDS011;62589;12.568;99.958;2023-04-24T13:22:20;16.23;;;11.50;;
74229;SDS011;62589;12.568;99.958;2023-04-24T13:24:47;18.05;;;12.95;;
74229;SDS011;62589;12.568;99.958;2023-04-24T13:27:17;19.05;;;14.25;;
74229;SDS011;62589;12.568;99.958;2023-04-24T13:29:43;19.52;;;15.48;;
74229;SDS011;62589;12.568;99.958;2023-04-24T13:32:10;20.50;;;15.25;;
74229;SDS011;62589;12.568;99.958;2023-04-24T13:34:36;20.52;;;15.98;;
74229;SDS011;62589;12.568;99.958;2023-04-24T13:37:03;19.90;;;14.93;;
74229;SDS011;62589;12.568;99.958;2023-04-24T13:39:30;20.73;;;15.15;;
74229;SDS011;62589;12.568;99.958;2023-04-24T13:41:57;16.60;;;14.55;;
74229;SDS011;62589;12.568;99.958;2023-04-24T13:44:23;19.25;;;14.10;;
74229;SDS011;62589;12.568;99.958;2023-04-24T13:46:51;18.90;;;14.05;;
74229;SDS011;62589;12.568;99.958;2023-04-24T13:49:19;18.67;;;13.38;;
74229;SDS011;62589;12.568;99.958;2023-04-24T13:51:47;17.20;;;12.70;;
74229;SDS011;62589;12.568;99.958;2023-04-24T13:54:13;17.48;;;12.38;;
74229;SDS011;62589;12.568;99.958;2023-04-24T13:56:40;14.27;;;11.80;;
74229;SDS011;62589;12.568;99.958;2023-04-24T13:59:06;14.70;;;11.20;;
74229;SDS011;62589;12.568;99.958;2023-04-24T14:01:33;13.55;;;10.48;;
74229;SDS011;62589;12.568;99.958;2023-04-24T14:04:00;14.63;;;11.20;;
74229;SDS011;62589;12.568;99.958;2023-04-24T14:06:27;12.88;;;10.57;;
74229;SDS011;62589;12.568;99.958;2023-04-24T14:08:53;13.32;;;10.48;;
74229;SDS011;62589;12.568;99.958;2023-04-24T14:11:19;14.77;;;10.75;;
74229;SDS011;62589;12.568;99.958;2023-04-24T14:13:46;15.02;;;10.85;;
74229;SDS011;62589;12.568;99.958;2023-04-24T14:16:12;13.60;;;10.95;;
74229;SDS011;62589;12.568;99.958;2023-04-24T14:18:39;13.80;;;11.18;;
74229;SDS011;62589;12.568;99.958;2023-04-24T14:21:06;14.57;;;11.65;;
74229;SDS011;62589;12.568;99.958;2023-04-24T14:23:32;12.95;;;11.23;;
74229;SDS011;62589;12.568;99.958;2023-04-24T14:25:59;15.65;;;11.45;;
74229;SDS011;62589;12.568;99.958;2023-04-24T14:28:25;14.35;;;11.30;;
74229;SDS011;62589;12.568;99.958;2023-04-24T14:30:52;13.00;;;11.35;;
74229;SDS011;62589;12.568;99.958;2023-04-24T14:33:19;16.25;;;11.52;;
74229;SDS011;62589;12.568;99.958;2023-04-24T14:35:45;15.32;;;11.45;;
74229;SDS011;62589;12.568;99.958;2023-04-24T14:38:12;17.00;;;12.10;;
74229;SDS011;62589;12.568;99.958;2023-04-24T14:40:39;15.98;;;11.82;;
74229;SDS011;62589;12.568;99.958;2023-04-24T14:43:06;14.32;;;11.63;;
74229;SDS011;62589;12.568;99.958;2023-04-24T14:45:32;15.63;;;12.20;;
74229;SDS011;62589;12.568;99.958;2023-04-24T14:47:59;12.45;;;11.07;;
74229;SDS011;62589;12.568;99.958;2023-04-24T14:50:25;13.88;;;11.18;;
74229;SDS011;62589;12.568;99.958;2023-04-24T14:52:55;14.05;;;11.38;;
74229;SDS011;62589;12.568;99.958;2023-04-24T14:55:23;14.13;;;11.30;;
74229;SDS011;62589;12.568;99.958;2023-04-24T14:57:51;13.82;;;11.20;;
74229;SDS011;62589;12.568;99.958;2023-04-24T15:00:18;13.57;;;11.45;;
74229;SDS011;62589;12.568;99.958;2023-04-24T15:02:45;12.93;;;10.88;;
74229;SDS011;62589;12.568;99.958;2023-04-24T15:05:11;14.75;;;11.18;;
74229;SDS011;62589;12.568;99.958;2023-04-24T15:07:38;14.30;;;11.40;;
74229;SDS011;62589;12.568;99.958;2023-04-24T15:10:06;14.75;;;11.43;;
74229;SDS011;62589;12.568;99.958;2023-04-24T15:12:33;12.50;;;11.00;;
74229;SDS011;62589;12.568;99.958;2023-04-24T15:15:00;12.35;;;10.95;;